Time;durP1;ratioP1;P1;durP2;ratioP2;P2;SDS_P1;SDS_P2;PMS_P1;PMS_P2;Temp;Humidity;BMP_temperature;BMP_pressure;BME280_temperature;BME280_humidity;BME280_pressure;Samples;Min_cycle;Max_cycle;Signal;HPM_P1;HPM_P2
2021/01/26 00:00:55;;;;;;;2.93;1.10;;;;;;;9.52;35.16;93136.38;5132887;27;20173;-74
2021/01/26 00:03:20;;;;;;;3.73;1.17;;;;;;;9.46;35.20;93127.25;5137168;27;20173;-76
2021/01/26 00:05:46;;;;;;;4.40;1.10;;;;;;;9.45;35.08;93131.06;5130886;27;20213;-75
2021/01/26 00:08:11;;;;;;;3.33;1.17;;;;;;;9.35;35.05;93123.81;5132793;27;20214;-76
2021/01/26 00:10:37;;;;;;;4.07;1.23;;;;;;;9.36;35.61;93102.13;5132503;27;20203;-74
2021/01/26 00:13:03;;;;;;;4.33;1.20;;;;;;;9.26;35.72;93097.56;5132668;27;20162;-76
2021/01/26 00:15:29;;;;;;;2.00;1.50;;;;;;;9.33;35.82;93091.47;5148384;27;20176;-76
2021/01/26 00:17:55;;;;;;;2.97;0.97;;;;;;;9.35;35.81;93100.59;5132596;27;20418;-75
2021/01/26 00:20:20;;;;;;;7.73;1.43;;;;;;;9.22;35.54;93076.25;5132582;27;20235;-75
2021/01/26 00:22:46;;;;;;;5.07;1.53;;;;;;;9.28;35.92;93076.63;5132513;28;20553;-76
2021/01/26 00:25:15;;;;;;;14.90;1.83;;;;;;;9.33;36.27;93094.91;5150528;27;20160;-76
2021/01/26 00:27:40;;;;;;;2.97;0.90;;;;;;;9.32;36.37;93088.06;5152612;27;20629;-75
2021/01/26 00:30:15;;;;;;;7.67;1.47;;;;;;;9.15;36.65;93102.88;5137000;27;20472;-75
2021/01/26 00:32:41;;;;;;;2.80;0.90;;;;;;;9.30;36.25;93089.56;5136909;27;20177;-74
2021/01/26 00:35:07;;;;;;;2.67;1.40;;;;;;;9.24;36.76;93075.88;5136547;27;20831;-75
2021/01/26 00:37:33;;;;;;;3.80;1.10;;;;;;;9.24;36.60;93059.88;5136163;27;20223;-73
2021/01/26 00:39:58;;;;;;;5.57;1.20;;;;;;;9.23;36.73;93072.44;5136734;27;20410;-75
2021/01/26 00:42:24;;;;;;;7.60;1.60;;;;;;;9.18;37.47;93088.78;5136153;27;20558;-75
2021/01/26 00:44:49;;;;;;;4.83;1.00;;;;;;;9.12;37.26;93070.91;5136547;27;20189;-76
2021/01/26 00:47:15;;;;;;;3.83;1.20;;;;;;;9.26;37.34;93061.03;5136284;27;20633;-75
2021/01/26 00:49:40;;;;;;;4.37;1.27;;;;;;;9.16;36.90;93083.09;5136426;27;20172;-77
2021/01/26 00:52:06;;;;;;;1.87;1.20;;;;;;;9.19;36.91;93063.69;5136456;27;20176;-75
2021/01/26 00:54:31;;;;;;;1.80;0.97;;;;;;;9.22;37.39;93080.81;5136164;27;20205;-74
2021/01/26 00:56:57;;;;;;;1.53;1.40;;;;;;;9.19;38.07;93068.25;5137190;27;20598;-77
2021/01/26 00:59:26;;;;;;;1.40;0.90;;;;;;;9.25;37.55;93072.06;5136757;27;20165;-80
2021/01/26 01:01:52;;;;;;;9.17;1.10;;;;;;;9.27;36.70;93085.78;5136039;27;20181;-81
2021/01/26 01:04:18;;;;;;;1.00;1.00;;;;;;;9.16;37.80;93069.78;5136048;27;20421;-77
2021/01/26 01:06:43;;;;;;;3.37;1.67;;;;;;;9.08;37.50;93046.94;5136321;27;20786;-74
2021/01/26 01:09:09;;;;;;;2.07;1.10;;;;;;;9.21;37.78;93058.75;5135773;27;20169;-79
2021/01/26 01:11:34;;;;;;;6.13;1.63;;;;;;;9.26;38.07;93070.94;5135990;27;20221;-76
2021/01/26 01:14:00;;;;;;;1.63;1.33;;;;;;;9.30;38.02;93057.59;5135620;27;20212;-76
2021/01/26 01:16:25;;;;;;;10.17;1.47;;;;;;;9.34;37.45;93037.06;5135887;27;20530;-76
2021/01/26 01:18:51;;;;;;;0.87;0.87;;;;;;;9.33;37.09;93052.28;5135829;27;20173;-75
2021/01/26 01:21:16;;;;;;;3.07;1.13;;;;;;;9.39;38.13;93072.06;5135623;27;20169;-75
2021/01/26 01:23:42;;;;;;;1.20;0.90;;;;;;;9.39;37.57;93076.63;5136374;27;20191;-75
2021/01/26 01:26:07;;;;;;;21.30;3.20;;;;;;;9.42;38.42;93041.22;5135911;27;20540;-77
2021/01/26 01:28:32;;;;;;;3.93;0.90;;;;;;;9.46;37.62;93056.06;5136075;27;20169;-76
2021/01/26 01:30:58;;;;;;;9.50;1.87;;;;;;;9.42;38.02;93054.56;5135748;27;20230;-76
2021/01/26 01:33:24;;;;;;;2.00;0.90;;;;;;;9.37;38.28;93066.38;5135950;27;20169;-77
2021/01/26 01:35:50;;;;;;;0.80;0.80;;;;;;;9.46;38.72;93050.00;5134257;27;20168;-77
2021/01/26 01:38:15;;;;;;;1.53;1.10;;;;;;;9.42;38.32;93076.63;5135740;27;20216;-77
2021/01/26 01:40:40;;;;;;;1.73;1.00;;;;;;;9.50;38.17;93067.50;5134555;27;20173;-76
2021/01/26 01:43:06;;;;;;;2.80;0.97;;;;;;;9.40;38.47;93064.84;5151817;27;20165;-78
2021/01/26 01:45:32;;;;;;;0.90;0.90;;;;;;;9.39;38.95;93068.66;5135906;27;20168;-77
2021/01/26 01:48:38;;;;;;;1.23;1.00;;;;;;;9.36;38.87;93056.84;5135525;27;20207;-77
2021/01/26 01:51:16;;;;;;;1.70;1.03;;;;;;;9.35;39.29;93043.91;5092478;28;20304;-76
2021/01/26 01:53:44;;;;;;;1.80;1.00;;;;;;;9.37;39.44;93022.97;5077088;28;20562;-79
2021/01/26 01:56:40;;;;;;;3.40;1.23;;;;;;;9.30;39.58;93026.41;5075285;28;20432;-77
2021/01/26 01:59:20;;;;;;;2.27;0.90;;;;;;;9.37;39.90;93025.63;5031997;28;20434;-76
2021/01/26 02:01:45;;;;;;;3.57;1.00;;;;;;;9.36;39.78;93016.13;4999559;28;20434;-77
2021/01/26 02:04:12;;;;;;;2.20;1.23;;;;;;;9.43;39.75;93022.22;4999206;28;20493;-78
2021/01/26 02:06:38;;;;;;;1.10;1.00;;;;;;;9.44;39.64;93005.09;5015749;28;20188;-77
2021/01/26 02:09:27;;;;;;;4.97;1.37;;;;;;;9.49;39.64;93002.03;4998985;28;20519;-77
2021/01/26 02:11:52;;;;;;;3.27;1.23;;;;;;;9.38;40.53;93024.50;4973076;28;20245;-77
2021/01/26 02:14:18;;;;;;;2.30;1.67;;;;;;;9.41;40.07;93002.44;4972825;28;20481;-80
2021/01/26 02:16:59;;;;;;;1.70;1.00;;;;;;;9.40;40.29;93000.91;4973210;28;20635;-76
2021/01/26 02:19:43;;;;;;;3.37;1.03;;;;;;;9.43;40.08;93018.81;4972683;28;20553;-76
2021/01/26 02:22:32;;;;;;;0.90;0.90;;;;;;;9.36;40.46;92984.91;4972766;28;20512;-75
2021/01/26 02:25:15;;;;;;;1.10;1.00;;;;;;;9.54;40.48;92983.00;4972600;28;20440;-76
2021/01/26 02:27:56;;;;;;;1.17;1.00;;;;;;;9.51;40.63;93007.75;4990325;28;20429;-76
2021/01/26 02:30:36;;;;;;;1.90;1.10;;;;;;;9.42;40.66;92988.72;4975828;28;20425;-78
2021/01/26 02:33:11;;;;;;;2.10;1.07;;;;;;;9.50;41.24;92990.25;4976134;28;21048;-77
2021/01/26 02:35:58;;;;;;;0.70;0.70;;;;;;;9.24;40.97;92972.00;5034880;28;20477;-78
2021/01/26 02:39:01;;;;;;;1.53;0.80;;;;;;;9.37;41.61;93007.00;5054439;28;20465;-77
2021/01/26 02:41:38;;;;;;;1.33;1.10;;;;;;;9.37;40.72;92981.13;5070657;28;20488;-79
2021/01/26 02:44:23;;;;;;;1.23;1.13;;;;;;;9.43;41.88;92989.50;5037893;28;20421;-78
2021/01/26 02:46:53;;;;;;;1.70;1.60;;;;;;;9.48;41.08;92986.41;5070029;28;20421;-75
2021/01/26 02:49:27;;;;;;;3.90;1.40;;;;;;;9.32;41.04;92980.75;5089348;27;21063;-76
2021/01/26 02:52:03;;;;;;;4.37;1.20;;;;;;;9.51;41.20;92993.66;5134165;27;20444;-76
2021/01/26 02:54:32;;;;;;;1.80;1.10;;;;;;;9.56;41.22;93013.84;5149624;27;21015;-76
2021/01/26 02:57:26;;;;;;;1.83;1.20;;;;;;;9.54;41.72;93006.22;5132867;27;20414;-75
2021/01/26 03:00:17;;;;;;;1.93;1.20;;;;;;;9.64;41.04;92999.34;5132584;27;20460;-77
2021/01/26 03:02:45;;;;;;;3.53;1.10;;;;;;;9.72;40.99;93027.50;5133225;27;20476;-79
2021/01/26 03:05:18;;;;;;;2.33;1.00;;;;;;;9.75;40.49;92989.41;5150118;27;20423;-77
2021/01/26 03:07:53;;;;;;;2.50;1.10;;;;;;;9.75;41.41;93008.81;5132527;27;20407;-76
2021/01/26 03:10:20;;;;;;;5.73;1.70;;;;;;;9.75;41.04;93003.50;5132886;27;20790;-76
2021/01/26 03:12:50;;;;;;;2.70;1.10;;;;;;;9.66;41.67;92997.81;5132739;27;20406;-75
2021/01/26 03:15:18;;;;;;;4.47;1.27;;;;;;;9.83;41.09;92988.25;5132855;27;20889;-74
2021/01/26 03:17:49;;;;;;;1.40;1.10;;;;;;;9.89;41.24;93004.63;5132793;27;20413;-74
2021/01/26 03:20:29;;;;;;;3.03;1.80;;;;;;;9.81;41.78;93015.28;5132489;27;20406;-75
2021/01/26 03:22:56;;;;;;;4.00;1.87;;;;;;;9.55;41.58;93007.75;5148080;27;20531;-76
2021/01/26 03:25:24;;;;;;;4.40;2.43;;;;;;;9.48;40.81;93037.81;5134492;27;20413;-75
2021/01/26 03:27:51;;;;;;;6.17;2.23;;;;;;;9.47;41.11;93038.19;5136283;27;20839;-75
2021/01/26 03:30:22;;;;;;;7.90;2.47;;;;;;;9.40;41.65;93035.53;5132134;27;20809;-75
2021/01/26 03:32:49;;;;;;;2.03;1.60;;;;;;;9.31;41.87;93019.16;5132167;27;20979;-75
2021/01/26 03:35:16;;;;;;;3.23;1.90;;;;;;;9.25;41.89;93030.19;5132186;27;20490;-76
2021/01/26 03:37:42;;;;;;;5.60;1.93;;;;;;;9.13;41.58;93051.88;5133371;27;20490;-76
2021/01/26 03:40:08;;;;;;;2.67;1.43;;;;;;;9.11;42.59;93030.22;5115022;27;20417;-77
2021/01/26 03:42:34;;;;;;;1.60;1.50;;;;;;;9.28;42.94;93021.47;5133890;27;20423;-75
2021/01/26 03:44:59;;;;;;;3.87;1.20;;;;;;;9.37;42.87;93025.63;5132272;27;20172;-74
2021/01/26 03:47:26;;;;;;;2.90;1.53;;;;;;;9.35;42.19;93034.00;5149526;27;20169;-76
2021/01/26 03:50:15;;;;;;;2.73;1.67;;;;;;;9.11;42.47;93008.91;5133351;27;20601;-76
2021/01/26 03:52:46;;;;;;;1.30;1.20;;;;;;;9.14;43.38;93010.81;5149471;27;20438;-76
2021/01/26 03:55:30;;;;;;;3.17;1.43;;;;;;;9.13;43.67;93032.50;5133227;27;20461;-76
2021/01/26 03:58:26;;;;;;;3.03;1.50;;;;;;;9.15;42.74;93031.00;5133141;27;20467;-75
2021/01/26 04:00:59;;;;;;;1.53;1.30;;;;;;;9.43;43.03;93030.22;5133393;27;20414;-75
2021/01/26 04:03:32;;;;;;;1.83;1.50;;;;;;;9.21;42.88;93023.38;5132129;27;20442;-76
2021/01/26 04:06:20;;;;;;;1.80;1.57;;;;;;;9.23;43.37;93039.72;5148817;27;20456;-77
2021/01/26 04:08:50;;;;;;;1.97;1.10;;;;;;;9.50;42.80;93037.44;5121766;27;20430;-74
2021/01/26 04:11:25;;;;;;;1.60;1.20;;;;;;;9.63;42.71;93029.81;5131985;27;20480;-77
2021/01/26 04:14:10;;;;;;;1.13;1.10;;;;;;;9.55;42.32;93018.41;5131956;27;20500;-77
2021/01/26 04:16:39;;;;;;;3.53;1.33;;;;;;;9.61;42.79;93016.09;5132300;27;20795;-77
2021/01/26 04:19:05;;;;;;;1.17;0.97;;;;;;;9.65;42.77;93025.63;5131422;27;20503;-75
2021/01/26 04:21:32;;;;;;;2.93;0.97;;;;;;;9.82;42.43;93029.41;5131456;28;20946;-76
2021/01/26 04:23:57;;;;;;;3.60;1.20;;;;;;;9.88;42.36;93019.09;5131712;28;20165;-77
2021/01/26 04:26:24;;;;;;;3.60;2.17;;;;;;;9.56;42.32;93035.16;5131478;28;20437;-77
2021/01/26 04:28:49;;;;;;;3.03;2.00;;;;;;;9.14;43.59;93057.97;5131627;27;20556;-75
2021/01/26 04:31:16;;;;;;;5.23;2.47;;;;;;;8.69;44.50;93042.31;5132564;28;20509;-76
2021/01/26 04:33:42;;;;;;;6.53;2.70;;;;;;;8.82;44.05;93049.97;5132290;28;20185;-76
2021/01/26 04:36:08;;;;;;;8.40;2.87;;;;;;;8.69;44.88;93052.22;5132273;28;20414;-76
2021/01/26 04:38:33;;;;;;;4.53;2.30;;;;;;;8.84;43.90;93043.13;5132121;27;20216;-77
2021/01/26 04:41:03;;;;;;;5.70;2.80;;;;;;;8.65;44.63;93038.91;5132763;27;20252;-76
2021/01/26 04:43:52;;;;;;;6.80;2.27;;;;;;;8.55;45.64;93029.00;5131089;28;20169;-76
2021/01/26 04:46:30;;;;;;;9.10;2.57;;;;;;;8.51;46.01;93040.78;5131203;28;20996;-75
2021/01/26 04:49:13;;;;;;;7.53;2.57;;;;;;;8.56;45.52;93048.38;5131705;28;20445;-77
2021/01/26 04:51:41;;;;;;;11.90;3.70;;;;;;;8.27;47.09;93056.25;5147009;27;20768;-77
2021/01/26 04:54:29;;;;;;;6.60;2.87;;;;;;;8.17;47.34;93052.41;5132427;28;20458;-76
2021/01/26 04:57:10;;;;;;;11.37;4.00;;;;;;;8.09;48.37;93066.06;5146694;27;20418;-74
2021/01/26 04:59:50;;;;;;;6.93;3.27;;;;;;;8.19;48.65;93065.31;5147727;27;20418;-76
2021/01/26 05:02:27;;;;;;;8.97;3.97;;;;;;;7.98;49.33;93068.66;5148723;27;20425;-77
2021/01/26 05:04:59;;;;;;;10.03;3.47;;;;;;;7.91;50.77;93076.56;5132632;28;20418;-76
2021/01/26 05:07:33;;;;;;;3.63;2.10;;;;;;;7.87;52.29;93063.28;5132352;28;20410;-76
2021/01/26 05:10:25;;;;;;;7.33;2.87;;;;;;;7.27;53.99;93087.53;5131217;27;20426;-76
2021/01/26 05:13:02;;;;;;;5.97;3.93;;;;;;;7.74;53.54;93066.59;5136218;27;20418;-77
2021/01/26 05:15:30;;;;;;;6.20;3.03;;;;;;;7.27;54.93;93060.97;5134676;27;20484;-75
2021/01/26 05:18:02;;;;;;;9.67;2.90;;;;;;;7.20;55.03;93076.09;5151889;27;20418;-75
2021/01/26 05:20:29;;;;;;;6.60;2.50;;;;;;;7.54;54.20;93066.88;5135855;27;20499;-75
2021/01/26 05:22:58;;;;;;;6.40;3.03;;;;;;;7.26;55.73;93061.34;5135163;27;20804;-77
2021/01/26 05:25:24;;;;;;;7.03;2.70;;;;;;;7.31;56.35;93082.25;5151770;27;20414;-76
2021/01/26 05:27:50;;;;;;;6.57;2.50;;;;;;;7.41;56.39;93076.28;5136048;27;20416;-76
2021/01/26 05:30:25;;;;;;;4.83;2.70;;;;;;;7.21;57.42;93089.00;5134292;27;20196;-77
2021/01/26 05:32:50;;;;;;;2.93;2.20;;;;;;;6.88;58.36;93068.63;5135161;27;20527;-76
2021/01/26 05:35:16;;;;;;;2.83;2.40;;;;;;;6.81;58.85;93098.50;5151610;27;20552;-77
2021/01/26 05:37:41;;;;;;;7.53;2.60;;;;;;;7.07;57.88;93115.41;5135806;27;20258;-76
2021/01/26 05:40:10;;;;;;;4.00;2.60;;;;;;;7.20;57.36;93097.34;5134412;27;20172;-77
2021/01/26 05:42:36;;;;;;;4.53;2.63;;;;;;;7.29;57.75;93108.41;5151546;27;20183;-77
2021/01/26 05:45:07;;;;;;;6.73;2.87;;;;;;;7.14;57.23;93126.09;5135495;27;20411;-76
2021/01/26 05:47:34;;;;;;;4.33;2.83;;;;;;;7.25;57.54;93115.59;5117046;27;20184;-77
2021/01/26 05:50:00;;;;;;;3.80;2.63;;;;;;;7.32;57.43;93116.41;5135552;27;20422;-76
2021/01/26 05:52:36;;;;;;;3.03;2.00;;;;;;;7.11;58.09;93121.50;5135082;27;20800;-76
2021/01/26 05:55:02;;;;;;;5.13;2.10;;;;;;;7.26;58.03;93117.88;5134288;27;20254;-75
2021/01/26 05:57:32;;;;;;;4.83;2.57;;;;;;;7.28;58.17;93136.84;5151203;27;20865;-76
2021/01/26 06:00:16;;;;;;;4.40;2.53;;;;;;;7.29;58.24;93138.34;5135097;27;20429;-77
2021/01/26 06:02:41;;;;;;;3.47;2.03;;;;;;;7.03;59.52;93130.56;5135180;27;20446;-77
2021/01/26 06:05:10;;;;;;;7.17;2.20;;;;;;;7.14;59.05;93136.72;5133722;27;20454;-77
2021/01/26 06:07:35;;;;;;;2.93;1.90;;;;;;;6.95;60.28;93150.94;5135423;27;20207;-77
2021/01/26 06:10:03;;;;;;;3.93;2.10;;;;;;;6.98;60.30;93147.56;5135165;27;20450;-77
2021/01/26 06:12:30;;;;;;;2.67;1.80;;;;;;;7.02;60.25;93158.22;5133620;27;20557;-76
2021/01/26 06:14:56;;;;;;;5.57;2.10;;;;;;;7.06;60.07;93167.72;5134752;27;20997;-77
2021/01/26 06:17:25;;;;;;;2.33;1.90;;;;;;;6.99;60.17;93170.31;5134784;27;20501;-77
2021/01/26 06:20:17;;;;;;;2.20;2.00;;;;;;;6.70;61.83;93176.44;5134804;27;20181;-78
2021/01/26 06:22:42;;;;;;;5.87;2.07;;;;;;;6.55;62.71;93173.59;5128639;27;20445;-77
2021/01/26 06:25:20;;;;;;;3.20;2.37;;;;;;;6.75;62.65;93190.16;5150490;27;20914;-77
2021/01/26 06:28:10;;;;;;;4.53;1.80;;;;;;;6.74;63.03;93203.78;5149837;27;20733;-76
2021/01/26 06:30:58;;;;;;;3.80;2.07;;;;;;;6.58;62.98;93215.31;5134544;27;20803;-75
2021/01/26 06:33:30;;;;;;;3.77;2.57;;;;;;;6.85;62.67;93225.88;5148057;27;20442;-76
2021/01/26 06:36:13;;;;;;;3.73;2.47;;;;;;;6.24;65.04;93217.16;5134269;27;20479;-76
2021/01/26 06:38:52;;;;;;;3.20;1.80;;;;;;;6.57;64.74;93234.25;5134650;27;20862;-77
2021/01/26 06:41:58;;;;;;;1.60;1.47;;;;;;;6.42;66.27;93238.59;5133289;27;20496;-77
2021/01/26 06:44:26;;;;;;;4.50;1.87;;;;;;;6.41;67.54;93239.72;5122859;27;20926;-76
2021/01/26 06:46:57;;;;;;;2.67;2.07;;;;;;;6.33;68.08;93240.72;5134604;27;20423;-76
2021/01/26 06:49:31;;;;;;;3.23;1.90;;;;;;;6.40;67.44;93248.81;5137282;27;20410;-76
2021/01/26 06:52:12;;;;;;;2.40;1.60;;;;;;;6.18;68.41;93254.91;5136155;27;20449;-76
2021/01/26 06:54:37;;;;;;;3.17;1.70;;;;;;;6.10;69.18;93270.69;5136203;27;20450;-77
2021/01/26 06:57:18;;;;;;;4.83;1.97;;;;;;;5.99;70.14;93269.00;5133887;27;20452;-75
2021/01/26 06:59:44;;;;;;;5.07;2.20;;;;;;;6.17;69.46;93280.63;5134099;27;20192;-75
2021/01/26 07:02:27;;;;;;;3.93;2.77;;;;;;;5.92;70.98;93288.19;5134118;27;20414;-75
2021/01/26 07:05:15;;;;;;;3.53;2.33;;;;;;;6.22;71.01;93285.63;5133858;27;20422;-75
2021/01/26 07:07:59;;;;;;;3.23;2.67;;;;;;;6.20;71.37;93287.88;5133657;27;20406;-76
2021/01/26 07:10:55;;;;;;;3.60;2.47;;;;;;;6.01;71.85;93293.28;5148663;27;20448;-74
2021/01/26 07:14:05;;;;;;;13.87;2.67;;;;;;;5.96;72.79;93299.63;5133653;27;20479;-75
2021/01/26 07:16:52;;;;;;;26.47;7.07;;;;;;;6.07;73.06;93313.81;5090582;28;20497;-76
2021/01/26 07:19:29;;;;;;;4.27;2.60;;;;;;;5.96;72.17;93315.53;5073773;28;20463;-76
2021/01/26 07:22:06;;;;;;;3.60;2.30;;;;;;;5.71;72.65;93325.66;5090142;28;20420;-75
2021/01/26 07:25:07;;;;;;;6.60;2.37;;;;;;;5.53;72.61;93329.88;5090540;28;20424;-76
2021/01/26 07:28:03;;;;;;;2.83;2.20;;;;;;;5.35;72.02;93336.72;5075783;28;20420;-75
2021/01/26 07:30:32;;;;;;;1.75;1.50;;;;;;;5.17;72.50;93337.13;5083708;28;20997;-74
2021/01/26 07:33:21;;;;;;;2.88;1.90;;;;;;;4.90;71.65;93340.72;5073949;28;20205;-75
2021/01/26 07:35:55;;;;;;;2.75;1.58;;;;;;;4.87;72.45;93344.06;5073381;28;20213;-76
2021/01/26 07:38:41;;;;;;;2.58;1.52;;;;;;;4.49;72.06;93337.59;5074137;28;20328;-76
2021/01/26 07:41:25;;;;;;;3.17;2.03;;;;;;;4.44;72.07;93346.53;5075084;28;20274;-77
2021/01/26 07:44:17;;;;;;;2.97;1.77;;;;;;;4.57;71.02;93357.00;5089768;28;20678;-79
2021/01/26 07:46:50;;;;;;;2.53;1.92;;;;;;;4.47;71.14;93363.59;5087182;27;20188;-75
2021/01/26 07:49:18;;;;;;;1.98;1.60;;;;;;;4.43;71.13;93375.94;5148730;27;20257;-75
2021/01/26 07:51:46;;;;;;;1.50;1.40;;;;;;;4.54;70.87;93389.41;5149389;27;20547;-75
2021/01/26 07:54:48;;;;;;;1.45;1.25;;;;;;;4.43;71.17;93392.59;5131422;27;20200;-77
2021/01/26 07:57:14;;;;;;;1.00;1.00;;;;;;;3.98;71.59;93391.13;5132544;27;20168;-76
2021/01/26 07:59:44;;;;;;;1.87;1.10;;;;;;;3.96;72.29;93395.19;5131715;27;20176;-77
2021/01/26 08:02:30;;;;;;;1.10;1.10;;;;;;;3.71;73.27;93407.78;5132267;27;20169;-75
2021/01/26 08:04:55;;;;;;;1.30;1.10;;;;;;;4.03;72.20;93411.22;5131994;27;20203;-79
2021/01/26 08:07:26;;;;;;;1.57;0.90;;;;;;;3.50;73.18;93415.13;5149003;27;20173;-76
2021/01/26 08:09:52;;;;;;;1.25;1.15;;;;;;;3.75;73.59;93427.09;5130997;27;20239;-76
2021/01/26 08:12:30;;;;;;;1.10;1.10;;;;;;;3.96;72.66;93442.72;5131405;27;20188;-75
2021/01/26 08:15:14;;;;;;;1.98;1.17;;;;;;;3.65;74.04;93446.06;5147057;27;20219;-77
2021/01/26 08:17:40;;;;;;;11.38;1.88;;;;;;;3.62;73.92;93444.09;5131706;27;20230;-79
2021/01/26 08:20:08;;;;;;;6.67;1.80;;;;;;;3.69;73.51;93457.47;5131671;27;20276;-76
2021/01/26 08:22:35;;;;;;;2.72;1.20;;;;;;;3.71;73.11;93429.66;5132612;27;20182;-77
2021/01/26 08:25:06;;;;;;;1.52;1.27;;;;;;;3.92;72.30;93461.13;5133012;27;20211;-77
2021/01/26 08:27:38;;;;;;;1.52;1.30;;;;;;;3.87;72.26;93457.94;5131049;28;20283;-78
2021/01/26 08:30:11;;;;;;;2.53;1.67;;;;;;;3.73;73.23;93466.28;5132323;28;20212;-78
2021/01/26 08:32:40;;;;;;;1.70;1.60;;;;;;;3.61;73.71;93466.31;5131164;28;20629;-81
2021/01/26 08:35:20;;;;;;;1.60;1.50;;;;;;;3.80;73.25;93465.69;5134098;27;20260;-80
2021/01/26 08:37:52;;;;;;;2.72;1.75;;;;;;;3.71;73.05;93461.34;5132380;27;20228;-81
2021/01/26 08:40:18;;;;;;;1.65;1.55;;;;;;;3.40;74.00;93461.19;5132281;28;20173;-79
2021/01/26 08:42:44;;;;;;;1.67;1.43;;;;;;;3.26;74.61;93474.75;5132571;27;20168;-78
2021/01/26 08:45:17;;;;;;;1.55;1.45;;;;;;;3.29;74.87;93474.09;5133285;27;20173;-76
2021/01/26 08:47:52;;;;;;;4.32;1.88;;;;;;;2.90;76.03;93481.59;5136752;27;20217;-80
2021/01/26 08:50:31;;;;;;;2.97;1.70;;;;;;;2.87;76.94;93479.63;5136808;27;20200;-81
2021/01/26 08:53:13;;;;;;;4.15;1.75;;;;;;;3.25;74.89;93473.22;5136282;27;20177;-79
2021/01/26 08:55:40;;;;;;;4.50;1.73;;;;;;;3.11;75.72;93478.06;5136440;27;20230;-80
2021/01/26 08:58:07;;;;;;;2.10;1.73;;;;;;;2.92;75.82;93481.28;5152581;27;20179;-79
2021/01/26 09:00:38;;;;;;;1.98;1.55;;;;;;;3.14;75.40;93477.41;5152183;27;20218;-80
2021/01/26 09:03:41;;;;;;;2.47;1.65;;;;;;;3.03;76.01;93479.75;5134886;27;20173;-79
2021/01/26 09:06:12;;;;;;;4.63;1.77;;;;;;;3.18;74.89;93465.84;5135765;27;20587;-78
2021/01/26 09:08:40;;;;;;;1.58;1.40;;;;;;;3.19;74.57;93469.25;5135012;27;20177;-81
2021/01/26 09:11:33;;;;;;;1.77;1.67;;;;;;;3.28;74.71;93463.88;5135475;27;20205;-81
2021/01/26 09:14:39;;;;;;;3.10;2.13;;;;;;;3.07;74.89;93470.06;5076201;28;20667;-80
2021/01/26 09:17:17;;;;;;;2.20;1.75;;;;;;;2.90;75.66;93471.06;5093134;28;20301;-78
2021/01/26 09:19:48;;;;;;;2.20;1.77;;;;;;;3.29;75.01;93491.78;5092464;28;20194;-79
2021/01/26 09:22:17;;;;;;;2.22;1.95;;;;;;;3.07;75.04;93490.38;5092778;28;20202;-78
2021/01/26 09:24:43;;;;;;;4.30;2.22;;;;;;;3.34;74.98;93488.91;5092411;28;20182;-78
2021/01/26 09:27:20;;;;;;;3.00;2.40;;;;;;;3.38;74.10;93492.44;5092743;28;20296;-85
2021/01/26 09:29:45;;;;;;;5.57;2.22;;;;;;;3.23;74.63;93501.78;5092532;28;20261;-80
2021/01/26 09:32:11;;;;;;;2.67;1.90;;;;;;;3.03;74.65;93484.22;5093848;28;20220;-81
2021/01/26 09:34:36;;;;;;;2.80;1.90;;;;;;;3.33;74.21;93490.78;5075437;28;20648;-79
2021/01/26 09:37:10;;;;;;;1.67;1.57;;;;;;;3.02;75.10;93501.16;5075961;28;20177;-80
2021/01/26 09:39:36;;;;;;;3.50;2.22;;;;;;;2.82;75.06;93508.09;5075976;28;20178;-80
2021/01/26 09:42:16;;;;;;;2.40;2.20;;;;;;;2.96;75.55;93515.66;5092977;28;20241;-80
2021/01/26 09:44:43;;;;;;;2.83;1.90;;;;;;;3.03;74.85;93507.97;5092114;28;20194;-79
2021/01/26 09:47:09;;;;;;;1.58;1.48;;;;;;;2.93;74.56;93509.19;5088105;28;20692;-80
2021/01/26 09:49:35;;;;;;;5.55;1.95;;;;;;;2.91;75.27;93501.59;5075603;28;20220;-81
2021/01/26 09:52:15;;;;;;;1.83;1.63;;;;;;;3.02;74.10;93514.34;5131467;27;20173;-81
2021/01/26 09:54:41;;;;;;;2.65;1.90;;;;;;;3.00;74.81;93524.44;5133669;27;20235;-78
2021/01/26 09:57:09;;;;;;;1.67;1.58;;;;;;;3.20;74.28;93515.66;5133494;27;20172;-79
2021/01/26 09:59:36;;;;;;;2.40;2.20;;;;;;;3.18;73.62;93502.03;5133658;27;20163;-79
2021/01/26 10:02:04;;;;;;;4.53;2.17;;;;;;;3.25;73.16;93514.66;5133639;27;20185;-79
2021/01/26 10:04:33;;;;;;;3.88;2.47;;;;;;;3.29;73.74;93505.75;5133982;27;20581;-79
2021/01/26 10:06:59;;;;;;;3.85;2.10;;;;;;;3.21;73.38;93517.19;5133786;27;20256;-80
2021/01/26 10:09:28;;;;;;;3.15;2.25;;;;;;;2.95;73.84;93514.88;5133578;27;20173;-79
2021/01/26 10:12:15;;;;;;;6.90;2.30;;;;;;;2.86;74.09;93508.94;5146746;27;20165;-80
2021/01/26 10:14:40;;;;;;;5.05;2.45;;;;;;;2.98;74.42;93510.84;5153243;27;20204;-80
2021/01/26 10:17:10;;;;;;;3.17;2.60;;;;;;;2.94;74.15;93507.31;5134849;27;20263;-79
2021/01/26 10:19:36;;;;;;;2.17;1.98;;;;;;;2.82;74.08;93513.34;5133508;27;20177;-79
2021/01/26 10:22:18;;;;;;;2.37;2.17;;;;;;;2.63;75.20;93506.72;5133633;27;20226;-80
2021/01/26 10:24:44;;;;;;;2.53;2.00;;;;;;;2.76;74.71;93509.41;5133282;27;20207;-80
2021/01/26 10:27:10;;;;;;;3.17;2.17;;;;;;;2.87;74.04;93521.06;5134551;27;20177;-80
2021/01/26 10:29:40;;;;;;;4.00;2.10;;;;;;;3.05;73.46;93518.97;5133086;27;20177;-81
2021/01/26 10:32:06;;;;;;;2.25;2.10;;;;;;;3.08;73.58;93518.28;5133201;27;20229;-79
2021/01/26 10:34:31;;;;;;;2.93;2.10;;;;;;;3.14;73.50;93515.13;5132940;27;20338;-78
2021/01/26 10:37:22;;;;;;;3.23;2.40;;;;;;;3.28;72.64;93521.91;5134421;27;20640;-79
2021/01/26 10:40:14;;;;;;;3.40;2.20;;;;;;;3.19;72.54;93522.00;5134060;27;20188;-80
2021/01/26 10:42:42;;;;;;;2.28;1.77;;;;;;;3.09;72.86;93511.94;5134247;27;20169;-80
2021/01/26 10:45:08;;;;;;;2.17;1.98;;;;;;;2.86;73.11;93520.28;5132596;27;20176;-79
2021/01/26 10:47:35;;;;;;;2.55;1.88;;;;;;;2.88;72.35;93530.50;5132677;27;20230;-78
2021/01/26 10:50:15;;;;;;;2.35;1.80;;;;;;;3.05;73.22;93530.28;5149719;27;20589;-79
2021/01/26 10:52:43;;;;;;;3.33;2.08;;;;;;;3.20;72.82;93539.41;5148810;27;20226;-78
2021/01/26 10:55:11;;;;;;;2.30;2.10;;;;;;;3.05;73.24;93537.41;5134076;27;20219;-79
2021/01/26 10:57:38;;;;;;;3.90;2.10;;;;;;;2.98;73.75;93532.69;5132803;27;20219;-80
2021/01/26 11:00:06;;;;;;;2.90;2.42;;;;;;;2.72;73.94;93548.06;5133846;27;20177;-79
2021/01/26 11:02:31;;;;;;;2.72;2.47;;;;;;;2.83;74.02;93526.19;5133441;27;21666;-79
2021/01/26 11:04:57;;;;;;;5.20;2.93;;;;;;;2.87;72.62;93545.53;5133711;27;20226;-81
2021/01/26 11:07:22;;;;;;;3.47;2.37;;;;;;;2.99;73.53;93549.28;5133234;27;20280;-80
2021/01/26 11:09:48;;;;;;;4.87;2.57;;;;;;;3.05;73.67;93551.38;5132934;27;20227;-81
2021/01/26 11:12:14;;;;;;;2.70;2.27;;;;;;;3.29;72.61;93557.75;5133578;27;20184;-79
2021/01/26 11:14:40;;;;;;;2.40;2.20;;;;;;;3.19;72.75;93559.72;5133236;27;20257;-78
2021/01/26 11:17:06;;;;;;;2.70;2.30;;;;;;;3.29;72.49;93566.41;5133290;27;20242;-80
2021/01/26 11:19:33;;;;;;;3.67;2.43;;;;;;;3.26;72.39;93563.69;5131508;27;20233;-80
2021/01/26 11:21:58;;;;;;;7.13;3.10;;;;;;;3.02;72.56;93559.16;5133042;27;20687;-80
2021/01/26 11:24:24;;;;;;;2.43;2.17;;;;;;;3.03;73.87;93563.34;5133300;27;20173;-79
2021/01/26 11:26:49;;;;;;;2.33;2.03;;;;;;;2.87;73.57;93555.31;5133274;27;20161;-79
2021/01/26 11:29:15;;;;;;;3.73;2.23;;;;;;;2.73;74.34;93563.53;5133218;27;20593;-79
2021/01/26 11:31:40;;;;;;;6.37;2.53;;;;;;;3.04;73.08;93559.63;5132929;27;20173;-78
2021/01/26 11:34:06;;;;;;;2.67;2.43;;;;;;;2.64;73.99;93562.88;5133252;27;20582;-78
2021/01/26 11:36:31;;;;;;;5.80;2.60;;;;;;;2.84;74.41;93555.97;5132776;27;20173;-78
2021/01/26 11:38:57;;;;;;;3.63;2.23;;;;;;;2.94;73.81;93552.13;5133002;27;20727;-80
2021/01/26 11:41:22;;;;;;;6.30;2.40;;;;;;;3.32;72.98;93562.38;5132906;27;20226;-80
2021/01/26 11:43:48;;;;;;;7.03;2.40;;;;;;;3.07;72.96;93553.69;5132906;27;20176;-79
2021/01/26 11:46:13;;;;;;;3.93;2.90;;;;;;;3.12;73.45;93556.09;5114069;27;20181;-79
2021/01/26 11:48:39;;;;;;;2.70;2.50;;;;;;;3.08;73.12;93553.34;5132410;27;20197;-79
2021/01/26 11:51:04;;;;;;;3.40;2.30;;;;;;;3.16;73.16;93562.25;5131817;27;20605;-79
2021/01/26 11:53:33;;;;;;;3.30;2.40;;;;;;;3.11;72.72;93557.19;5132395;27;20641;-78
2021/01/26 11:55:59;;;;;;;2.28;2.00;;;;;;;3.16;73.03;93563.03;5132783;27;20184;-78
2021/01/26 11:58:25;;;;;;;5.63;2.23;;;;;;;3.23;72.55;93556.44;5132461;27;20184;-78
2021/01/26 12:00:50;;;;;;;2.23;2.03;;;;;;;3.12;73.30;93551.59;5132596;27;20169;-79
2021/01/26 12:03:16;;;;;;;2.93;2.60;;;;;;;3.04;73.37;93556.97;5132283;27;20415;-78
2021/01/26 12:05:42;;;;;;;1.97;1.83;;;;;;;3.13;72.88;93553.13;5132682;27;20177;-79